createdAt,value
2018-07-25T00:04:56.622Z,24.09
2018-07-25T00:10:01.889Z,23.94
2018-07-25T00:15:07.158Z,23.84
2018-07-25T00:20:11.239Z,23.93
2018-07-25T00:25:15.282Z,23.80
2018-07-25T00:30:19.098Z,23.71
2018-07-25T00:35:23.018Z,23.45
2018-07-25T00:40:26.724Z,23.42
2018-07-25T00:45:30.489Z,23.38
2018-07-25T00:50:34.196Z,23.32
2018-07-25T00:55:38.189Z,23.33
2018-07-25T01:17:04.202Z,22.43
2018-07-25T01:22:08.115Z,22.30
2018-07-25T01:27:11.992Z,22.17
2018-07-25T01:32:16.082Z,21.97
2018-07-25T01:37:19.998Z,21.86
2018-07-25T01:42:24.269Z,22.11
2018-07-25T01:47:28.310Z,22.09
2018-07-25T01:52:32.065Z,21.76
2018-07-25T01:57:35.625Z,21.26
2018-07-25T02:02:39.287Z,21.51
2018-07-25T02:07:42.989Z,21.89
2018-07-25T02:12:46.708Z,21.96
2018-07-25T02:17:50.523Z,21.81
2018-07-25T02:22:54.465Z,21.68
2018-07-25T02:27:58.450Z,21.62
2018-07-25T02:33:02.776Z,21.84
2018-07-25T02:38:06.935Z,21.72
2018-07-25T02:43:11.922Z,21.51
2018-07-25T02:48:16.382Z,21.58
2018-07-25T02:53:21.026Z,21.38
2018-07-25T02:58:25.591Z,21.16
2018-07-25T03:03:29.457Z,21.07
2018-07-25T03:08:33.885Z,21.26
2018-07-25T03:13:38.011Z,20.97
2018-07-25T03:18:42.060Z,20.85
2018-07-25T03:23:46.902Z,20.96
2018-07-25T03:28:50.902Z,20.93
2018-07-25T03:33:55.200Z,21.12
2018-07-25T03:38:59.318Z,20.97
2018-07-25T03:44:03.658Z,20.82
2018-07-25T03:49:07.893Z,21.10
2018-07-25T03:54:12.024Z,20.96
2018-07-25T03:59:15.936Z,20.90
2018-07-25T04:04:20.160Z,20.91
2018-07-25T04:09:24.540Z,20.98
2018-07-25T04:14:29.849Z,20.72
2018-07-25T04:19:35.464Z,20.88
2018-07-25T04:24:40.992Z,20.90
2018-07-25T04:29:45.970Z,20.65
2018-07-25T04:34:50.792Z,21.08
2018-07-25T04:39:55.771Z,21.02
2018-07-25T04:45:06.882Z,21.31
2018-07-25T05:08:26.478Z,22.05
2018-07-25T05:13:32.324Z,22.36
2018-07-25T05:18:37.816Z,22.47
2018-07-25T05:23:41.991Z,22.63
2018-07-25T05:33:51.725Z,22.75
2018-07-25T05:38:56.354Z,22.90
2018-07-25T05:44:02.268Z,23.03
2018-07-25T05:49:06.505Z,23.18
2018-07-25T05:54:11.083Z,23.29
2018-07-25T05:59:16.816Z,23.40
2018-07-25T06:04:21.979Z,23.48
2018-07-25T06:09:26.957Z,23.68
2018-07-25T06:14:31.167Z,23.80
2018-07-25T06:19:35.637Z,23.89
2018-07-25T06:24:40.578Z,23.99
2018-07-25T06:29:44.938Z,24.12
2018-07-25T06:34:50.273Z,24.24
2018-07-25T06:39:56.043Z,24.41
2018-07-25T06:50:17.115Z,24.68
2018-07-25T06:55:22.886Z,24.82
2018-07-25T07:00:27.360Z,25.11
2018-07-25T07:05:31.848Z,25.38
2018-07-25T07:10:37.220Z,25.43
2018-07-25T07:15:42.766Z,25.42
2018-07-25T07:20:48.626Z,25.41
2018-07-25T07:25:54.151Z,25.45
2018-07-25T07:30:59.688Z,25.52
2018-07-25T07:36:06.326Z,25.60
2018-07-25T07:41:10.745Z,25.66
2018-07-25T07:46:15.347Z,25.91
2018-07-25T07:51:20.771Z,25.92
2018-07-25T07:56:25.683Z,26.18
2018-07-25T08:01:30.038Z,26.13
2018-07-25T08:06:35.122Z,26.23
2018-07-25T08:11:39.714Z,26.11
2018-07-25T08:16:44.298Z,26.59
2018-07-25T08:21:48.391Z,26.88
2018-07-25T08:26:53.059Z,27.04
2018-07-25T08:31:57.618Z,27.23
2018-07-25T08:37:02.239Z,27.30
2018-07-25T08:42:06.450Z,26.94
2018-07-25T08:47:11.269Z,26.97
2018-07-25T08:52:15.518Z,27.43
2018-07-25T08:57:20.796Z,26.97
2018-07-25T09:02:27.191Z,27.20
2018-07-25T09:07:31.492Z,27.46
2018-07-25T09:12:36.880Z,27.92
2018-07-25T09:17:41.248Z,27.56
2018-07-25T09:22:46.043Z,27.52
2018-07-25T09:27:51.095Z,27.56
2018-07-25T09:32:57.900Z,28.15
2018-07-25T09:38:02.880Z,28.54
2018-07-25T09:43:06.959Z,28.52
2018-07-25T09:48:11.334Z,28.29
2018-07-25T09:53:15.664Z,28.77
2018-07-25T09:58:21.088Z,28.63
2018-07-25T10:03:25.279Z,28.31
2018-07-25T10:08:29.630Z,28.36
2018-07-25T10:13:33.921Z,28.67
2018-07-25T10:18:38.156Z,29.25
2018-07-25T10:23:42.630Z,29.44
2018-07-25T10:28:46.830Z,29.56
2018-07-25T10:33:50.807Z,29.88
2018-07-25T10:38:54.854Z,29.97
2018-07-25T10:43:59.227Z,30.35
2018-07-25T10:49:03.425Z,30.22
2018-07-25T10:54:08.210Z,30.07
2018-07-25T10:59:13.438Z,29.86
2018-07-25T11:04:18.360Z,30.35
2018-07-25T11:09:23.403Z,30.04
2018-07-25T11:14:31.899Z,30.48
2018-07-25T11:19:36.583Z,30.35
2018-07-25T11:24:42.565Z,29.84
2018-07-25T11:29:47.040Z,29.56
2018-07-25T11:34:54.361Z,30.07
2018-07-25T11:40:04.764Z,29.96
2018-07-25T11:45:12.441Z,30.66
2018-07-25T11:50:24.143Z,30.63
2018-07-25T11:55:29.624Z,30.70
2018-07-25T12:00:37.124Z,30.94
2018-07-25T12:05:44.651Z,30.56
2018-07-25T12:10:49.605Z,31.35
2018-07-25T12:15:55.367Z,31.43
2018-07-25T12:21:01.085Z,32.64
2018-07-25T12:26:05.322Z,33.61
2018-07-25T12:31:09.463Z,33.77
2018-07-25T12:36:13.629Z,34.12
2018-07-25T12:41:17.631Z,34.66
2018-07-25T12:46:21.542Z,34.09
2018-07-25T12:51:25.719Z,33.74
2018-07-25T12:56:29.669Z,34.09
2018-07-25T13:01:34.659Z,34.14
2018-07-25T13:06:38.959Z,35.16
2018-07-25T13:11:43.406Z,34.60
2018-07-25T13:16:48.790Z,33.12
2018-07-25T13:21:54.719Z,32.41
2018-07-25T13:26:58.731Z,33.56
2018-07-25T13:32:03.225Z,33.23
2018-07-25T13:37:07.783Z,32.16
2018-07-25T13:42:12.044Z,32.29
2018-07-25T13:47:16.637Z,32.59
2018-07-25T13:52:21.064Z,32.79
2018-07-25T13:57:25.608Z,33.00
2018-07-25T14:02:37.643Z,32.77
2018-07-25T14:07:42.615Z,32.96
2018-07-25T14:12:47.580Z,33.14
2018-07-25T14:17:51.794Z,33.03
2018-07-25T14:22:58.129Z,33.17
2018-07-25T14:28:02.448Z,32.86
2018-07-25T14:33:07.872Z,32.56
2018-07-25T14:38:16.067Z,32.93
2018-07-25T14:43:21.153Z,33.25
2018-07-25T14:48:25.524Z,32.71
2018-07-25T14:53:30.143Z,32.06
2018-07-25T14:58:34.465Z,32.27
2018-07-25T15:03:39.232Z,32.98
2018-07-25T15:25:13.395Z,33.71
2018-07-25T15:30:23.006Z,34.12
2018-07-25T15:35:29.157Z,34.37
2018-07-25T15:40:33.772Z,34.26
2018-07-25T15:45:38.618Z,35.48
2018-07-25T15:50:42.860Z,35.66
2018-07-25T15:55:48.692Z,36.09
2018-07-25T16:00:53.923Z,37.02
2018-07-25T16:05:58.920Z,37.37
2018-07-25T16:11:03.585Z,38.89
2018-07-25T16:16:08.295Z,40.63
2018-07-25T16:21:13.573Z,41.86
2018-07-25T16:26:18.031Z,41.67
2018-07-25T16:31:22.538Z,39.16
2018-07-25T16:36:26.827Z,37.53
2018-07-25T16:41:31.054Z,36.78
2018-07-25T16:46:35.032Z,36.34
2018-07-25T16:51:39.326Z,35.10
2018-07-25T16:56:43.590Z,34.67
2018-07-25T17:01:47.680Z,34.63
2018-07-25T17:06:52.524Z,34.28
2018-07-25T17:11:56.898Z,34.43
2018-07-25T17:17:01.029Z,34.36
2018-07-25T17:22:05.562Z,34.14
2018-07-25T17:27:10.338Z,34.01
2018-07-25T17:32:15.173Z,34.07
2018-07-25T17:37:19.892Z,34.03
2018-07-25T17:42:24.227Z,35.08
2018-07-25T17:47:28.553Z,36.40
2018-07-25T17:52:33.010Z,34.74
2018-07-25T17:57:37.067Z,33.52
2018-07-25T18:02:41.731Z,33.00
2018-07-25T18:07:46.493Z,32.84
2018-07-25T18:12:52.952Z,33.16
2018-07-25T18:17:57.171Z,32.93
2018-07-25T18:23:02.470Z,32.49
2018-07-25T18:28:07.099Z,32.48
2018-07-25T18:33:11.924Z,32.18
2018-07-25T18:38:16.274Z,32.05
2018-07-25T18:43:20.805Z,31.84
2018-07-25T18:48:24.977Z,31.48
2018-07-25T18:53:29.578Z,30.94
2018-07-25T18:58:34.314Z,30.70
2018-07-25T19:03:38.818Z,30.50
2018-07-25T19:08:43.356Z,30.14
2018-07-25T19:15:33.355Z,29.73
2018-07-25T19:20:37.610Z,29.71
2018-07-25T19:25:43.209Z,29.48
2018-07-25T19:30:48.302Z,29.30
2018-07-25T19:35:53.493Z,29.17
2018-07-25T19:40:57.678Z,29.05
2018-07-25T19:46:01.782Z,29.09
2018-07-25T19:51:05.678Z,28.86
2018-07-25T19:56:09.890Z,28.80
2018-07-25T20:01:13.967Z,28.46
2018-07-25T20:06:18.473Z,28.29
2018-07-25T20:11:22.913Z,28.15
2018-07-25T20:16:27.076Z,27.93
2018-07-25T20:21:31.858Z,27.88
2018-07-25T20:26:36.112Z,27.72
2018-07-25T20:31:40.179Z,27.76
2018-07-25T20:36:44.522Z,27.77
2018-07-25T20:41:50.799Z,27.64
2018-07-25T20:46:55.708Z,27.62
2018-07-25T20:51:59.871Z,27.86
2018-07-25T20:57:04.073Z,27.59
2018-07-25T21:02:07.787Z,27.53
2018-07-25T21:07:11.491Z,27.39
2018-07-25T21:12:15.502Z,27.27
2018-07-25T21:17:19.150Z,27.25
2018-07-25T21:22:23.557Z,27.18
2018-07-25T21:27:27.463Z,27.08
2018-07-25T21:32:32.046Z,26.85
2018-07-25T21:37:36.104Z,26.77
2018-07-25T21:42:40.094Z,26.71
2018-07-25T21:47:44.094Z,26.76
2018-07-25T21:52:48.810Z,26.86
2018-07-25T21:57:52.875Z,26.78
2018-07-25T22:02:56.894Z,26.69
2018-07-25T22:08:01.337Z,26.29
2018-07-25T22:13:05.874Z,26.07
2018-07-25T22:18:09.926Z,26.13
2018-07-25T22:23:15.231Z,25.73
2018-07-25T22:28:19.684Z,25.45
2018-07-25T22:33:23.554Z,25.65
2018-07-25T22:38:27.926Z,25.57
2018-07-25T22:43:31.715Z,25.44
2018-07-25T22:48:35.840Z,25.27
2018-07-25T22:53:39.715Z,25.13
2018-07-25T22:58:43.630Z,24.69
2018-07-25T23:03:47.649Z,24.92
2018-07-25T23:08:52.052Z,24.87
2018-07-25T23:13:56.665Z,24.96
2018-07-25T23:19:00.242Z,24.97
2018-07-25T23:24:04.362Z,24.85
2018-07-25T23:29:08.665Z,24.77
2018-07-25T23:34:12.678Z,24.84
2018-07-25T23:39:16.727Z,24.61
2018-07-25T23:44:20.645Z,24.49
2018-07-25T23:49:24.661Z,24.57
2018-07-25T23:54:28.641Z,24.37
2018-07-25T23:59:32.345Z,23.73
